This is the latest recevied weather packets stored in our database for station/object SR6WVX. If no packets are shown the sender has not sent any weather packets the latest 1 day(s).
| Time | Temp. | Humidity | Pressure | Rain* | Wind** | Luminosity | Snow |
|---|---|---|---|---|---|---|---|
| 1778075621 | 26.67° C | 40% | 1000 hPa | 0 mm | - | - | - |
| 1778074420 | 26.11° C | 39% | 1000.1 hPa | 0 mm | - | - | - |
| 1778073219 | 26.67° C | 39% | 1000 hPa | 0 mm | - | - | - |
| 1778072318 | 25° C | 42% | 1000.2 hPa | 0 mm | - | - | - |
| 1778072018 | 25° C | 41% | 1000.2 hPa | 0 mm | - | - | - |
| 1778071117 | 25.56° C | 42% | 1000.2 hPa | 0 mm | - | - | - |
| 1778070817 | 25.56° C | 41% | 1000.2 hPa | 0 mm | - | - | - |
| 1778069916 | 26.11° C | 41% | 1000.2 hPa | 0 mm | - | - | - |
| 1778068715 | 25.56° C | 42% | 1000.1 hPa | 0 mm | - | - | - |
| 1778067514 | 26.11° C | 41% | 1000.3 hPa | 0 mm | - | - | - |
| 1778066613 | 23.89° C | 44% | 1000.3 hPa | 0 mm | - | - | - |
| 1778065412 | 23.89° C | 46% | 1000.3 hPa | 0 mm | - | - | - |
| 1778064511 | 24.44° C | 45% | 1000.2 hPa | 0 mm | - | - | - |
| 1778064211 | 24.44° C | 46% | 1000 hPa | 0 mm | - | - | - |
| 1778063610 | 24.44° C | 45% | 1000 hPa | 0 mm | - | - | - |
| 1778063310 | 23.89° C | 47% | 1000 hPa | 0 mm | - | - | - |
| 1778063010 | 23.33° C | 47% | 1000 hPa | 0 mm | - | - | - |
| 1778062109 | 23.89° C | 43% | 1000 hPa | 0 mm | - | - | - |
| 1778061809 | 24.44° C | 42% | 1000 hPa | 0 mm | - | - | - |
| 1778060908 | 24.44° C | 43% | 999.9 hPa | 0 mm | - | - | - |
| 1778060607 | 24.44° C | 43% | 1000 hPa | 0 mm | - | - | - |
| 1778060007 | 23.89° C | 44% | 999.8 hPa | 0 mm | - | - | - |
| 1778059707 | 23.89° C | 43% | 999.9 hPa | 0 mm | - | - | - |
| 1778058806 | 25° C | 43% | 999.9 hPa | 0 mm | - | - | - |
| 1778058506 | 25° C | 43% | 999.8 hPa | 0 mm | - | - | - |
* Rain latest hour (hover to see other rain measurements)
** Current wind speed in m/s (hover to see current wind gust speed)